Estación Meteorológica Peña el Pijo (Robertgarden) [ 09/24/17 17:45:45 CEST ]

Fecha Hora Presion(HPa) Temp (°C) Humedad % Rocio (°C) Viento ( m/s) Direccion Lluvia 1Hora(mm) Lluvia 24H(mm) LLuvia Total(mm)
2017-Aug-29 01:01:58 1009.300 15.5 76 11.3         1451.43
2017-Aug-29 02:01:55 1009.300 14.3 79 10.7         1451.43
2017-Aug-29 03:01:09 1008.600 13.9 82 10.9         1451.43
2017-Aug-29 04:01:14 1008.700 13.5 84 10.8         1451.43
2017-Aug-29 05:01:10 1008.400 13.3 85 10.8         1451.43
2017-Aug-29 06:01:11 1008.100 12.9 86 10.6         1451.43
2017-Aug-29 07:02:13 1008.200 12.2 87 10.1         1451.43
2017-Aug-29 08:01:45 1008.200 12.8 87 10.7         1451.43
2017-Aug-29 09:01:52 1008.500 14.9 88 12.9         1451.43
2017-Aug-29 10:01:38 1008.300 18.9 83 15.9         1451.43
2017-Aug-29 11:01:47 1008.600 20.1 74 15.3         1451.43
2017-Aug-29 12:02:06 1008.400 23.5 52 13.1         1451.43
2017-Aug-29 13:02:03 1008.300 22.9 49 11.6         1451.43
2017-Aug-29 14:01:40 1008.000 22.5 50 11.5         1451.43
2017-Aug-29 15:01:42 1008.600 19.8 62 12.3 1.8 SSW     1451.43
2017-Aug-29 16:01:39 1007.500 17.8 69 12.1         1451.43
2017-Aug-29 17:01:43 1008.200 15.8 70 10.4     0.51 0.51 1451.95
2017-Aug-29 18:01:52 1007.500 16.1 70 10.7     0.51 1.03 1452.47
2017-Aug-29 19:01:52 1007.500 18.6 59 10.4 1.1 NW   1.03 1452.47
2017-Aug-29 20:01:41 1007.800 17.9 62 10.5       1.03 1452.47
2017-Aug-29 21:01:55 1008.700 16.8 67 10.6       1.03 1452.47
2017-Aug-29 22:01:47 1009.500 16.4 70 11.0       1.03 1452.47
2017-Aug-29 23:01:32 1009.200 16.2 73 11.4       1.03 1452.47

Temperatura Máxima:23°    Temperatura Mínima:12°
Presión Máxima:1009.500 Hpa    Presión Mínima:1007.500 Hpa


Volver